Time;durP1;ratioP1;P1;durP2;ratioP2;P2;SDS_P1;SDS_P2;PMS_P1;PMS_P2;Temp;Humidity;BMP_temperature;BMP_pressure;BME280_temperature;BME280_humidity;BME280_pressure;Samples;Min_cycle;Max_cycle;Signal;HPM_P1;HPM_P2
2021/10/12 00:01:20;;;;;;;21.35;15.40;;;9.10;99.90;;;;;;1939433;72;21075;-77
2021/10/12 00:03:46;;;;;;;21.97;15.45;;;9.10;99.90;;;;;;1937406;72;21129;-77
2021/10/12 00:06:12;;;;;;;27.42;15.10;;;9.10;99.90;;;;;;1932515;72;21271;-77
2021/10/12 00:08:38;;;;;;;24.45;15.85;;;9.10;99.90;;;;;;1925774;72;21067;-77
2021/10/12 00:11:05;;;;;;;23.65;14.87;;;9.10;99.90;;;;;;1936080;72;21071;-77
2021/10/12 00:13:31;;;;;;;20.43;14.70;;;9.00;99.90;;;;;;1929101;73;21043;-77
2021/10/12 00:15:57;;;;;;;22.80;14.87;;;9.00;99.90;;;;;;1923137;72;21062;-77
2021/10/12 00:18:23;;;;;;;27.67;16.20;;;9.00;99.90;;;;;;1927804;73;21144;-77
2021/10/12 00:20:49;;;;;;;24.27;14.70;;;9.00;99.90;;;;;;1920056;73;21083;-77
2021/10/12 00:23:15;;;;;;;23.07;14.50;;;8.90;99.90;;;;;;1930553;72;21039;-78
2021/10/12 00:25:41;;;;;;;28.52;15.65;;;8.90;99.90;;;;;;1936814;72;21144;-78
2021/10/12 00:28:08;;;;;;;20.17;14.63;;;8.90;99.90;;;;;;1943266;72;21494;-78
2021/10/12 00:30:34;;;;;;;27.42;15.38;;;8.90;99.90;;;;;;1931528;72;22868;-78
2021/10/12 00:33:00;;;;;;;22.67;15.25;;;8.90;99.90;;;;;;1944236;73;21594;-78
2021/10/12 00:35:26;;;;;;;25.25;14.60;;;8.90;99.90;;;;;;1941575;72;21559;-78
2021/10/12 00:37:52;;;;;;;26.75;14.50;;;8.90;99.90;;;;;;1914831;72;21470;-77
2021/10/12 00:40:18;;;;;;;25.92;16.05;;;8.80;99.90;;;;;;1945031;72;21191;-77
2021/10/12 00:42:44;;;;;;;22.85;15.55;;;8.80;99.90;;;;;;1925074;72;21048;-77
2021/10/12 00:45:11;;;;;;;32.55;16.87;;;8.80;99.90;;;;;;1938559;72;21062;-78
2021/10/12 00:47:37;;;;;;;24.23;16.00;;;8.80;99.90;;;;;;1937919;72;21082;-77
2021/10/12 00:50:03;;;;;;;23.35;15.60;;;8.80;99.90;;;;;;1936298;72;21067;-77
2021/10/12 00:52:29;;;;;;;26.50;15.75;;;8.80;99.90;;;;;;1924207;73;21475;-77
2021/10/12 00:54:55;;;;;;;25.90;16.48;;;8.80;99.90;;;;;;1943052;71;21475;-78
2021/10/12 00:57:21;;;;;;;28.07;15.32;;;8.80;99.90;;;;;;1926310;71;21036;-78
2021/10/12 00:59:47;;;;;;;24.10;16.70;;;8.70;99.90;;;;;;1927275;73;21071;-78
2021/10/12 01:02:14;;;;;;;26.77;16.20;;;8.70;99.90;;;;;;1947880;72;21074;-77
2021/10/12 01:04:40;;;;;;;24.02;16.37;;;8.70;99.90;;;;;;1937647;72;21152;-77
2021/10/12 01:07:06;;;;;;;28.80;16.02;;;8.70;99.90;;;;;;1927699;73;21066;-77
2021/10/12 01:09:32;;;;;;;21.00;14.98;;;8.70;99.90;;;;;;1942945;72;21194;-78
2021/10/12 01:11:58;;;;;;;23.65;16.12;;;8.70;99.90;;;;;;1914035;72;21071;-77
2021/10/12 01:14:24;;;;;;;24.35;15.38;;;8.60;99.90;;;;;;1935554;72;21137;-77
2021/10/12 01:16:50;;;;;;;27.40;17.12;;;8.70;99.90;;;;;;1938403;73;21071;-78
2021/10/12 01:19:17;;;;;;;23.65;16.27;;;8.70;99.90;;;;;;1921409;72;21063;-78
2021/10/12 01:21:43;;;;;;;31.50;16.93;;;8.70;99.90;;;;;;1931579;72;21611;-78
2021/10/12 01:24:09;;;;;;;28.38;17.65;;;8.70;99.90;;;;;;1941547;72;21478;-78
2021/10/12 01:26:35;;;;;;;25.88;16.40;;;8.70;99.90;;;;;;1926956;72;21443;-78
2021/10/12 01:29:02;;;;;;;30.25;17.75;;;8.70;99.90;;;;;;1927220;72;21069;-78
2021/10/12 01:31:28;;;;;;;34.90;17.70;;;8.70;99.90;;;;;;1945707;71;21062;-77
2021/10/12 01:33:54;;;;;;;24.50;16.65;;;8.70;99.90;;;;;;1932872;73;21354;-77
2021/10/12 01:36:20;;;;;;;27.98;17.12;;;8.70;99.90;;;;;;1921693;72;21161;-78
2021/10/12 01:38:46;;;;;;;26.15;16.42;;;8.70;99.90;;;;;;1943429;72;21121;-76
2021/10/12 01:41:12;;;;;;;30.00;18.12;;;8.70;99.90;;;;;;1941576;72;21075;-78
2021/10/12 01:43:38;;;;;;;26.40;16.35;;;8.70;99.90;;;;;;1927972;73;21062;-77
2021/10/12 01:46:04;;;;;;;24.45;15.75;;;8.70;99.90;;;;;;1931246;72;21071;-77
2021/10/12 01:48:31;;;;;;;28.47;16.10;;;8.70;99.90;;;;;;1938450;72;21067;-78
2021/10/12 01:50:57;;;;;;;25.97;15.93;;;8.60;99.90;;;;;;1927263;72;21202;-78
2021/10/12 01:53:23;;;;;;;22.58;15.88;;;8.70;99.90;;;;;;1943654;71;21071;-78
2021/10/12 01:55:49;;;;;;;24.82;15.05;;;8.60;99.90;;;;;;1944316;72;21075;-78
2021/10/12 01:58:15;;;;;;;25.35;15.43;;;8.50;99.90;;;;;;1931917;73;21435;-78
2021/10/12 02:00:41;;;;;;;32.58;15.60;;;8.50;99.90;;;;;;1948018;72;21495;-78
2021/10/12 02:03:08;;;;;;;27.37;15.25;;;8.50;99.90;;;;;;1942823;72;21467;-78
2021/10/12 02:05:34;;;;;;;32.70;15.75;;;8.50;99.90;;;;;;1943725;72;21079;-78
2021/10/12 02:08:00;;;;;;;22.75;15.60;;;8.50;99.90;;;;;;1929540;72;21189;-78
2021/10/12 02:10:26;;;;;;;23.73;16.20;;;8.50;99.90;;;;;;1935138;73;21074;-78
2021/10/12 02:12:52;;;;;;;28.70;17.23;;;8.50;99.90;;;;;;1933639;73;21140;-78
2021/10/12 02:15:18;;;;;;;26.77;17.62;;;8.50;99.90;;;;;;1930936;72;21140;-78
2021/10/12 02:17:44;;;;;;;22.45;15.72;;;8.50;99.90;;;;;;1917811;72;21062;-78
2021/10/12 02:20:11;;;;;;;35.48;18.23;;;8.50;99.90;;;;;;1945195;72;21144;-78
2021/10/12 02:22:37;;;;;;;24.18;17.05;;;8.50;99.90;;;;;;1936288;73;21071;-78
2021/10/12 02:25:03;;;;;;;25.72;16.05;;;8.50;99.90;;;;;;1909683;72;21078;-78
2021/10/12 02:27:29;;;;;;;23.30;16.52;;;8.50;99.90;;;;;;1946492;72;21040;-78
2021/10/12 02:29:59;;;;;;;26.77;17.10;;;8.50;99.90;;;;;;1937617;72;21148;-78
2021/10/12 02:32:25;;;;;;;24.90;15.10;;;8.50;99.90;;;;;;1929714;73;21063;-78
2021/10/12 02:34:51;;;;;;;31.97;16.30;;;8.60;99.90;;;;;;1925984;73;21144;-78
2021/10/12 02:37:18;;;;;;;25.32;15.45;;;8.60;99.90;;;;;;1938122;72;21036;-78
2021/10/12 02:39:44;;;;;;;29.25;16.17;;;8.60;99.90;;;;;;1938997;72;21075;-78
2021/10/12 02:42:10;;;;;;;28.20;17.30;;;8.60;99.90;;;;;;1937166;73;21144;-78
2021/10/12 02:44:36;;;;;;;22.62;15.25;;;8.60;99.90;;;;;;1937381;73;21156;-78
2021/10/12 02:47:02;;;;;;;24.40;16.67;;;8.60;99.90;;;;;;1931666;72;21071;-78
2021/10/12 02:49:28;;;;;;;24.12;15.32;;;8.60;99.90;;;;;;1933867;72;21082;-78
2021/10/12 02:51:54;;;;;;;28.38;15.55;;;8.60;99.90;;;;;;1926576;72;21533;-77
2021/10/12 02:54:20;;;;;;;23.80;15.32;;;8.60;99.90;;;;;;1930612;72;21478;-78
2021/10/12 02:56:47;;;;;;;25.35;15.50;;;8.70;99.90;;;;;;1939026;72;21680;-78
2021/10/12 02:59:13;;;;;;;25.45;14.43;;;8.70;99.90;;;;;;1920102;72;21556;-78
2021/10/12 03:01:39;;;;;;;29.27;16.95;;;8.70;99.90;;;;;;1942331;72;21576;-78
2021/10/12 03:04:05;;;;;;;31.25;15.63;;;8.70;99.90;;;;;;1945729;72;21040;-78
2021/10/12 03:06:31;;;;;;;22.75;15.83;;;8.60;99.90;;;;;;1934072;72;21071;-77
2021/10/12 03:08:57;;;;;;;27.05;16.95;;;8.60;99.90;;;;;;1920895;72;21211;-78
2021/10/12 03:11:23;;;;;;;23.67;15.88;;;8.60;99.90;;;;;;1930711;72;21074;-78
2021/10/12 03:13:49;;;;;;;24.35;15.88;;;8.60;99.90;;;;;;1941682;73;21219;-77
2021/10/12 03:16:16;;;;;;;24.45;15.85;;;8.60;99.90;;;;;;1924748;72;21071;-77
2021/10/12 03:18:42;;;;;;;24.47;16.17;;;8.60;99.90;;;;;;1927661;72;21136;-78
2021/10/12 03:21:10;;;;;;;24.07;16.15;;;8.50;99.90;;;;;;1935698;72;21140;-80
2021/10/12 03:23:36;;;;;;;23.42;15.50;;;8.50;99.90;;;;;;1932921;72;21055;-77
2021/10/12 03:26:02;;;;;;;24.20;16.67;;;8.50;99.90;;;;;;1939681;73;21061;-77
2021/10/12 03:28:28;;;;;;;28.57;17.65;;;8.50;99.90;;;;;;1931729;72;21124;-77
2021/10/12 03:30:54;;;;;;;22.80;16.77;;;8.50;99.90;;;;;;1916325;72;21136;-77
2021/10/12 03:33:20;;;;;;;36.77;17.32;;;8.50;99.90;;;;;;1922448;72;21144;-77
2021/10/12 03:36:12;;;;;;;27.05;17.48;;;8.50;99.90;;;;;;1936618;72;21079;-77
2021/10/12 03:38:29;;;;;;;30.02;16.75;;;8.50;99.90;;;;;;1926554;72;21070;-78
2021/10/12 03:40:56;;;;;;;29.35;17.23;;;8.60;99.90;;;;;;1932233;73;21039;-77
2021/10/12 03:43:23;;;;;;;26.97;17.87;;;8.60;99.90;;;;;;1944993;71;21074;-78
2021/10/12 03:45:49;;;;;;;27.82;17.98;;;8.50;99.90;;;;;;1916497;72;21152;-78
2021/10/12 03:48:16;;;;;;;25.77;17.00;;;8.50;99.90;;;;;;1944313;72;21071;-77
2021/10/12 03:50:42;;;;;;;28.85;18.35;;;8.40;99.90;;;;;;1915816;72;21040;-78
2021/10/12 03:53:08;;;;;;;25.62;17.57;;;8.50;99.90;;;;;;1929826;73;21138;-78
2021/10/12 03:55:36;;;;;;;25.50;17.87;;;8.50;99.90;;;;;;1928021;72;21209;-78
2021/10/12 03:58:02;;;;;;;29.15;17.27;;;8.50;99.90;;;;;;1925352;70;21128;-78
2021/10/12 04:00:28;;;;;;;28.80;17.20;;;8.50;99.90;;;;;;1945714;73;21047;-77
2021/10/12 04:02:54;;;;;;;27.40;17.35;;;8.50;99.90;;;;;;1930624;72;21520;-78
2021/10/12 04:05:20;;;;;;;28.35;17.20;;;8.60;99.90;;;;;;1935773;73;21088;-78
2021/10/12 04:07:47;;;;;;;29.77;17.15;;;8.70;99.90;;;;;;1920506;73;21078;-78
2021/10/12 04:10:13;;;;;;;26.40;16.20;;;8.80;99.90;;;;;;1932462;71;21136;-78
2021/10/12 04:12:39;;;;;;;26.27;16.77;;;8.80;99.90;;;;;;1917433;73;21132;-78
2021/10/12 04:15:05;;;;;;;31.10;18.32;;;8.90;99.90;;;;;;1942455;73;21243;-78
2021/10/12 04:17:32;;;;;;;25.72;17.60;;;8.90;99.90;;;;;;1944591;72;21070;-78
2021/10/12 04:19:58;;;;;;;25.88;17.92;;;8.90;99.90;;;;;;1943261;73;21040;-78
2021/10/12 04:22:24;;;;;;;26.45;17.45;;;8.80;99.90;;;;;;1938244;72;21071;-76
2021/10/12 04:24:50;;;;;;;28.70;18.35;;;8.90;99.90;;;;;;1933248;73;21059;-76
2021/10/12 04:27:17;;;;;;;31.48;18.40;;;8.90;99.90;;;;;;1925074;73;21487;-75
2021/10/12 04:29:43;;;;;;;27.77;17.67;;;8.90;99.90;;;;;;1928111;72;21111;-77
2021/10/12 04:32:09;;;;;;;27.17;17.40;;;9.00;99.90;;;;;;1931685;72;21040;-78
2021/10/12 04:34:35;;;;;;;38.00;18.07;;;9.00;99.90;;;;;;1928626;72;21066;-77
2021/10/12 04:37:01;;;;;;;26.02;17.27;;;9.00;99.90;;;;;;1947069;71;21075;-74
2021/10/12 04:39:28;;;;;;;26.35;16.37;;;9.00;99.90;;;;;;1932620;72;21128;-76
2021/10/12 04:41:54;;;;;;;21.60;15.53;;;9.00;99.90;;;;;;1933376;72;21486;-75
2021/10/12 04:44:20;;;;;;;26.17;15.78;;;9.00;99.90;;;;;;1931531;73;21358;-75
2021/10/12 04:46:46;;;;;;;28.47;16.05;;;9.00;99.90;;;;;;1941175;72;21152;-75
2021/10/12 04:49:12;;;;;;;27.13;15.98;;;9.00;99.90;;;;;;1930106;72;21145;-76
2021/10/12 04:51:39;;;;;;;28.07;16.20;;;9.00;99.90;;;;;;1941838;72;21066;-75
2021/10/12 04:54:05;;;;;;;25.10;16.93;;;9.00;99.90;;;;;;1935647;72;21553;-75
2021/10/12 04:56:31;;;;;;;29.80;16.62;;;9.10;99.90;;;;;;1935092;73;21517;-74
2021/10/12 04:58:57;;;;;;;22.02;15.72;;;9.10;99.90;;;;;;1937746;72;21473;-75
2021/10/12 05:01:23;;;;;;;23.92;16.17;;;9.10;99.90;;;;;;1927078;73;21574;-75
2021/10/12 05:03:49;;;;;;;30.50;16.20;;;9.10;99.90;;;;;;1919871;73;21466;-74
2021/10/12 05:06:15;;;;;;;25.88;16.75;;;9.20;99.90;;;;;;1935196;72;21079;-74
2021/10/12 05:08:42;;;;;;;29.12;17.20;;;9.10;99.90;;;;;;1943612;72;21074;-74
2021/10/12 05:11:08;;;;;;;26.73;18.32;;;9.20;99.90;;;;;;1932409;73;21145;-73
2021/10/12 05:13:34;;;;;;;26.12;17.90;;;9.10;99.90;;;;;;1932469;72;21185;-73
2021/10/12 05:16:04;;;;;;;28.12;17.40;;;9.10;99.90;;;;;;1936155;73;21491;-74
2021/10/12 05:18:31;;;;;;;30.65;18.62;;;9.10;99.90;;;;;;1936139;73;21074;-74
2021/10/12 05:20:55;;;;;;;25.57;17.27;;;9.10;99.90;;;;;;1933804;73;21070;-74
2021/10/12 05:23:22;;;;;;;26.60;17.52;;;9.10;99.90;;;;;;1931463;72;21070;-75
2021/10/12 05:25:48;;;;;;;26.17;17.65;;;9.20;99.90;;;;;;1923005;73;21223;-75
2021/10/12 05:28:14;;;;;;;29.48;17.45;;;9.20;99.90;;;;;;1931014;73;21144;-74
2021/10/12 05:30:40;;;;;;;31.30;17.65;;;9.20;99.90;;;;;;1930544;72;21043;-75
2021/10/12 05:33:06;;;;;;;26.97;16.85;;;9.20;99.90;;;;;;1927467;72;21075;-75
2021/10/12 05:35:33;;;;;;;28.02;16.93;;;9.20;99.90;;;;;;1936609;73;21515;-75
2021/10/12 05:37:59;;;;;;;26.12;17.55;;;9.20;99.90;;;;;;1942102;72;21472;-75
2021/10/12 05:40:25;;;;;;;26.95;16.73;;;9.20;99.90;;;;;;1930749;71;21572;-75
2021/10/12 05:42:51;;;;;;;28.60;17.52;;;9.10;99.90;;;;;;1945565;73;21495;-74
2021/10/12 05:45:17;;;;;;;28.30;17.42;;;9.20;99.90;;;;;;1936540;72;21467;-74
2021/10/12 05:47:43;;;;;;;27.98;17.77;;;9.10;99.90;;;;;;1939856;73;21530;-74
2021/10/12 05:50:09;;;;;;;29.63;17.67;;;9.10;99.90;;;;;;1939136;72;21062;-73
2021/10/12 05:52:38;;;;;;;23.05;16.65;;;9.10;99.90;;;;;;1919526;72;21066;-74
2021/10/12 05:55:11;;;;;;;32.30;18.42;;;9.10;99.90;;;;;;1938758;72;21191;-75
2021/10/12 06:00:08;;;;;;;27.30;17.27;;;9.10;99.90;;;;;;1916956;72;21076;-76
2021/10/12 06:02:34;;;;;;;25.43;17.37;;;9.20;99.90;;;;;;1939511;72;21151;-74
2021/10/12 06:05:00;;;;;;;27.98;16.85;;;9.20;99.90;;;;;;1923379;72;21062;-74
2021/10/12 06:07:26;;;;;;;26.82;16.60;;;9.20;99.90;;;;;;1918418;72;21141;-73
2021/10/12 06:09:52;;;;;;;27.15;16.07;;;9.20;99.90;;;;;;1911108;72;21148;-75
2021/10/12 06:12:18;;;;;;;29.82;17.73;;;9.20;99.90;;;;;;1926940;73;21078;-75
2021/10/12 06:14:45;;;;;;;28.20;18.05;;;9.20;99.90;;;;;;1947340;72;21159;-75
2021/10/12 06:17:12;;;;;;;27.37;18.95;;;9.10;99.90;;;;;;1931572;73;21087;-73
2021/10/12 06:19:38;;;;;;;31.00;18.85;;;9.00;99.90;;;;;;1945808;72;21044;-74
2021/10/12 06:22:04;;;;;;;33.15;19.32;;;9.00;99.90;;;;;;1942225;73;21188;-74
2021/10/12 06:24:30;;;;;;;29.10;18.67;;;9.00;99.90;;;;;;1927543;72;21136;-73
2021/10/12 06:26:56;;;;;;;32.65;18.37;;;9.00;99.90;;;;;;1939839;72;21066;-73
2021/10/12 06:29:22;;;;;;;29.10;18.48;;;9.00;99.90;;;;;;1928367;72;21065;-74
2021/10/12 06:31:49;;;;;;;31.80;18.70;;;9.10;99.90;;;;;;1911235;72;21066;-74
2021/10/12 06:34:15;;;;;;;34.60;18.87;;;9.00;99.90;;;;;;1945720;71;21266;-75
2021/10/12 06:36:41;;;;;;;27.37;18.32;;;9.10;99.90;;;;;;1943829;72;21243;-73
2021/10/12 06:39:08;;;;;;;27.58;18.07;;;9.10;99.90;;;;;;1931669;72;21052;-74
2021/10/12 06:41:34;;;;;;;34.25;18.48;;;9.20;99.90;;;;;;1936266;71;21075;-74
2021/10/12 06:44:00;;;;;;;26.75;18.00;;;9.30;99.90;;;;;;1927256;72;21140;-74
2021/10/12 06:46:26;;;;;;;27.85;17.90;;;9.40;99.90;;;;;;1949295;72;21075;-74
2021/10/12 06:48:52;;;;;;;29.48;17.02;;;9.40;99.90;;;;;;1945922;71;21079;-73
2021/10/12 06:51:19;;;;;;;27.45;17.35;;;9.40;99.90;;;;;;1947086;72;21042;-74
2021/10/12 06:53:46;;;;;;;35.10;16.97;;;9.40;99.90;;;;;;1940701;72;21551;-75
2021/10/12 06:56:12;;;;;;;26.27;16.57;;;9.40;99.90;;;;;;1915158;72;21070;-74
2021/10/12 06:58:38;;;;;;;25.50;16.40;;;9.30;99.90;;;;;;1924979;72;21160;-73
2021/10/12 07:01:04;;;;;;;23.60;15.83;;;9.30;99.90;;;;;;1943426;72;21274;-73
2021/10/12 07:03:31;;;;;;;21.57;15.30;;;9.40;99.90;;;;;;1922918;72;21070;-73
2021/10/12 07:05:57;;;;;;;25.95;16.30;;;9.50;99.90;;;;;;1951678;72;21078;-73
2021/10/12 07:08:23;;;;;;;36.40;16.25;;;9.50;99.90;;;;;;1943791;72;21067;-73
2021/10/12 07:10:49;;;;;;;27.35;15.65;;;9.60;99.90;;;;;;1936222;72;21071;-74
2021/10/12 07:13:17;;;;;;;21.75;14.35;;;9.60;99.90;;;;;;1929244;72;21063;-74
2021/10/12 07:15:43;;;;;;;25.05;16.12;;;9.60;99.90;;;;;;1943024;72;21129;-74
2021/10/12 07:18:11;;;;;;;21.93;14.68;;;9.70;99.90;;;;;;1925595;72;21068;-74
2021/10/12 07:20:39;;;;;;;24.12;16.10;;;9.60;99.90;;;;;;1933521;73;21221;-74
2021/10/12 07:23:07;;;;;;;23.12;15.40;;;9.60;99.90;;;;;;1920362;72;21074;-75
2021/10/12 07:25:33;;;;;;;48.38;19.82;;;9.60;99.90;;;;;;1939181;72;21185;-73
2021/10/12 07:27:59;;;;;;;60.03;22.13;;;9.60;99.90;;;;;;1944385;72;21166;-73
2021/10/12 07:30:25;;;;;;;39.58;16.35;;;9.70;99.90;;;;;;1935245;72;21118;-73
2021/10/12 07:32:51;;;;;;;40.40;18.48;;;9.60;99.90;;;;;;1933862;72;21054;-74
2021/10/12 07:35:17;;;;;;;50.43;19.48;;;9.60;99.90;;;;;;1916366;72;21123;-74
2021/10/12 07:37:44;;;;;;;22.77;14.95;;;9.70;99.90;;;;;;1939123;73;21067;-74
2021/10/12 07:40:10;;;;;;;32.53;15.18;;;9.90;99.90;;;;;;1937929;71;21078;-74
2021/10/12 07:42:36;;;;;;;22.98;14.47;;;9.90;99.90;;;;;;1931420;71;21067;-74
2021/10/12 07:45:02;;;;;;;30.52;14.40;;;10.00;99.90;;;;;;1944948;73;21244;-74
2021/10/12 07:47:28;;;;;;;25.17;14.98;;;10.00;99.90;;;;;;1923910;72;21490;-74
2021/10/12 07:49:54;;;;;;;36.45;14.43;;;10.10;99.90;;;;;;1925911;72;21552;-74
2021/10/12 07:52:20;;;;;;;25.70;15.15;;;10.20;99.90;;;;;;1930469;72;21499;-74
2021/10/12 07:54:59;;;;;;;23.12;13.48;;;10.10;99.90;;;;;;1931507;73;21552;-74
2021/10/12 07:57:14;;;;;;;22.60;14.60;;;10.10;99.90;;;;;;1923853;71;21102;-74
2021/10/12 07:59:40;;;;;;;20.95;12.98;;;10.20;99.90;;;;;;1929024;73;21063;-73
2021/10/12 08:02:07;;;;;;;24.45;12.82;;;10.30;99.90;;;;;;1931103;72;21415;-73
2021/10/12 08:04:33;;;;;;;21.73;12.18;;;10.50;99.90;;;;;;1935611;71;21160;-74
2021/10/12 08:06:59;;;;;;;22.25;12.73;;;10.60;99.90;;;;;;1927666;72;21070;-73
2021/10/12 08:09:25;;;;;;;22.55;12.82;;;10.70;99.90;;;;;;1933824;72;21066;-74
2021/10/12 08:11:53;;;;;;;20.05;13.00;;;10.70;99.90;;;;;;1940247;72;21251;-74
2021/10/12 08:14:21;;;;;;;22.90;12.82;;;10.80;99.90;;;;;;1933794;73;21067;-74
2021/10/12 08:16:47;;;;;;;19.27;12.53;;;10.70;99.90;;;;;;1936200;71;21153;-74
2021/10/12 08:19:13;;;;;;;22.20;12.95;;;10.80;99.90;;;;;;1920941;72;21239;-75
2021/10/12 08:21:39;;;;;;;21.95;12.05;;;10.80;99.90;;;;;;1935899;72;21238;-74
2021/10/12 08:24:08;;;;;;;20.00;12.58;;;10.80;99.90;;;;;;1928395;73;21148;-74
2021/10/12 08:26:34;;;;;;;24.70;12.07;;;10.80;99.90;;;;;;1921493;72;21040;-75
2021/10/12 08:29:00;;;;;;;23.55;11.73;;;10.90;99.90;;;;;;1940522;72;21080;-76
2021/10/12 08:31:26;;;;;;;21.77;11.60;;;10.80;99.90;;;;;;1942684;72;21219;-74
2021/10/12 08:33:53;;;;;;;21.02;10.60;;;10.70;99.90;;;;;;1941346;73;21048;-78
2021/10/12 08:36:19;;;;;;;16.73;11.18;;;10.60;99.90;;;;;;1919425;72;21444;-78
2021/10/12 08:38:45;;;;;;;22.48;9.63;;;10.70;99.90;;;;;;1946204;72;21070;-80
2021/10/12 08:41:11;;;;;;;13.70;9.33;;;10.70;99.90;;;;;;1936456;72;21459;-79
2021/10/12 08:43:37;;;;;;;18.70;9.73;;;10.70;99.90;;;;;;1947288;72;21040;-80
2021/10/12 08:46:03;;;;;;;14.28;9.00;;;10.70;99.90;;;;;;1943054;72;21226;-75
2021/10/12 08:48:33;;;;;;;14.85;8.83;;;10.50;99.90;;;;;;1936443;71;21070;-74
2021/10/12 08:50:59;;;;;;;20.02;9.65;;;10.60;99.90;;;;;;1941257;72;21036;-73
2021/10/12 08:53:26;;;;;;;16.70;8.90;;;10.60;99.90;;;;;;1937395;72;21201;-72
2021/10/12 08:55:53;;;;;;;16.82;9.48;;;10.70;99.90;;;;;;1938157;72;21074;-73
2021/10/12 08:58:19;;;;;;;13.13;8.28;;;10.70;99.90;;;;;;1942221;72;21075;-74
2021/10/12 09:00:45;;;;;;;14.60;9.25;;;10.70;99.90;;;;;;1918185;72;21150;-73
2021/10/12 09:05:45;;;;;;;20.95;8.18;;;10.50;99.90;;;;;;1934390;72;21071;-72
2021/10/12 09:08:11;;;;;;;13.68;7.72;;;10.50;99.90;;;;;;1940412;72;21148;-72
2021/10/12 09:10:37;;;;;;;16.12;8.98;;;10.40;99.90;;;;;;1945283;72;21144;-72
2021/10/12 09:13:03;;;;;;;13.60;7.97;;;10.50;99.90;;;;;;1947806;72;21140;-73
2021/10/12 09:15:29;;;;;;;16.82;8.90;;;10.60;99.90;;;;;;1926474;72;21074;-72
2021/10/12 09:17:55;;;;;;;17.55;8.53;;;10.70;99.90;;;;;;1938443;73;21217;-73
2021/10/12 09:20:22;;;;;;;13.75;8.28;;;10.80;99.90;;;;;;1926068;73;21140;-71
2021/10/12 09:22:48;;;;;;;10.40;7.92;;;10.80;99.90;;;;;;1932814;72;21133;-72
2021/10/12 09:25:14;;;;;;;13.38;7.90;;;11.00;99.90;;;;;;1927493;72;21075;-73
2021/10/12 09:27:40;;;;;;;14.70;8.50;;;11.10;99.90;;;;;;1946844;73;21067;-76
2021/10/12 09:30:06;;;;;;;11.22;7.20;;;11.30;99.90;;;;;;1948808;71;21044;-77
2021/10/12 09:32:34;;;;;;;17.37;7.12;;;11.40;99.90;;;;;;1929930;72;21071;-76
2021/10/12 09:35:00;;;;;;;9.90;7.05;;;11.40;99.90;;;;;;1917685;73;21075;-76
2021/10/12 09:37:26;;;;;;;12.47;7.72;;;11.50;99.90;;;;;;1915325;72;21076;-77
2021/10/12 09:39:53;;;;;;;11.08;6.78;;;11.40;99.90;;;;;;1922915;73;21157;-76
2021/10/12 09:42:22;;;;;;;14.83;6.78;;;11.70;99.90;;;;;;1940796;71;21079;-76
2021/10/12 09:44:48;;;;;;;8.00;6.55;;;11.90;99.90;;;;;;1948516;72;21082;-76
2021/10/12 09:47:14;;;;;;;13.65;6.35;;;11.90;99.90;;;;;;1927017;72;21466;-76
2021/10/12 09:49:40;;;;;;;11.83;6.45;;;11.90;99.90;;;;;;1936356;72;21446;-76
2021/10/12 09:52:07;;;;;;;13.43;6.47;;;12.00;99.90;;;;;;1940552;73;21654;-77
2021/10/12 09:54:33;;;;;;;8.35;5.65;;;12.20;99.90;;;;;;1945209;72;21533;-76
2021/10/12 09:56:59;;;;;;;9.90;5.90;;;12.30;99.90;;;;;;1926862;71;21489;-71
2021/10/12 09:59:25;;;;;;;13.40;5.70;;;12.40;99.90;;;;;;1928812;72;21427;-72
2021/10/12 10:01:51;;;;;;;10.32;5.45;;;12.20;99.90;;;;;;1925533;72;21514;-74
2021/10/12 10:04:18;;;;;;;13.15;6.35;;;12.40;99.90;;;;;;1938128;72;21137;-75
2021/10/12 10:06:45;;;;;;;13.70;6.25;;;12.40;99.90;;;;;;1927954;73;21144;-75
2021/10/12 10:09:12;;;;;;;11.20;4.78;;;12.40;99.90;;;;;;1938467;71;21492;-76
2021/10/12 10:11:45;;;;;;;9.48;5.72;;;12.50;99.90;;;;;;1943577;72;21070;-75
2021/10/12 10:14:09;;;;;;;7.62;5.00;;;12.50;99.90;;;;;;1945874;72;21106;-75
2021/10/12 10:16:35;;;;;;;6.17;4.72;;;12.30;99.90;;;;;;1934166;72;21513;-76
2021/10/12 10:19:01;;;;;;;6.30;4.58;;;12.40;99.90;;;;;;1934119;72;21093;-75
2021/10/12 10:21:27;;;;;;;7.60;4.80;;;12.20;99.90;;;;;;1927694;72;21169;-76
2021/10/12 10:24:01;;;;;;;7.60;4.67;;;12.00;99.90;;;;;;1932006;72;21079;-76
2021/10/12 10:26:27;;;;;;;8.08;4.95;;;11.70;99.90;;;;;;1923500;73;21518;-76
2021/10/12 10:28:55;;;;;;;8.85;4.90;;;11.50;99.90;;;;;;1943090;72;21079;-76
2021/10/12 10:31:21;;;;;;;18.75;4.60;;;11.50;99.90;;;;;;1920426;72;21498;-76
2021/10/12 10:33:49;;;;;;;9.33;5.03;;;11.40;99.90;;;;;;1952876;71;21564;-76
2021/10/12 10:36:15;;;;;;;7.50;4.67;;;11.20;99.90;;;;;;1920382;72;21145;-75
2021/10/12 10:38:48;;;;;;;13.10;5.42;;;11.00;99.90;;;;;;1924934;72;21067;-77
2021/10/12 10:41:14;;;;;;;6.17;4.42;;;11.00;99.90;;;;;;1930824;72;21043;-76
2021/10/12 10:43:40;;;;;;;8.25;4.67;;;11.10;99.90;;;;;;1946529;72;21051;-76
2021/10/12 10:46:06;;;;;;;10.25;5.42;;;11.00;99.90;;;;;;1935509;73;21537;-77
2021/10/12 10:48:33;;;;;;;7.60;4.87;;;11.10;99.90;;;;;;1937175;72;21159;-77
2021/10/12 10:50:59;;;;;;;11.78;4.83;;;11.40;99.90;;;;;;1925131;72;21149;-80
2021/10/12 10:53:25;;;;;;;6.22;4.45;;;11.80;99.90;;;;;;1912329;72;21066;-80
2021/10/12 10:55:51;;;;;;;8.68;4.45;;;12.10;99.90;;;;;;1943121;72;21075;-80
2021/10/12 10:58:17;;;;;;;5.80;3.58;;;12.50;99.90;;;;;;1929559;72;21044;-82
2021/10/12 11:00:43;;;;;;;7.67;4.05;;;13.00;99.90;;;;;;1931462;73;21219;-80
2021/10/12 11:03:09;;;;;;;8.90;3.17;;;13.10;99.90;;;;;;1923730;72;21074;-83
2021/10/12 11:05:36;;;;;;;7.47;3.35;;;13.20;99.90;;;;;;1929224;72;21067;-80
2021/10/12 11:08:02;;;;;;;7.95;3.67;;;13.20;99.90;;;;;;1938800;72;21028;-81
2021/10/12 11:10:28;;;;;;;8.63;3.00;;;13.40;99.90;;;;;;1938680;72;21498;-84
2021/10/12 11:12:55;;;;;;;6.33;3.10;;;13.10;99.90;;;;;;1938740;73;21071;-84
2021/10/12 11:15:21;;;;;;;5.08;3.58;;;13.40;99.90;;;;;;1932200;72;21136;-84
2021/10/12 11:17:47;;;;;;;4.87;3.87;;;13.70;99.90;;;;;;1943979;72;21066;-84
2021/10/12 11:20:14;;;;;;;6.90;3.40;;;13.40;99.90;;;;;;1923494;73;21067;-83
2021/10/12 11:22:41;;;;;;;8.73;3.65;;;13.50;99.90;;;;;;1928327;72;21183;-84
2021/10/12 11:25:20;;;;;;;11.03;4.30;;;13.30;99.90;;;;;;1943187;72;21470;-82
2021/10/12 11:27:35;;;;;;;6.67;3.65;;;13.20;99.90;;;;;;1934894;72;21232;-83
2021/10/12 11:30:01;;;;;;;6.75;3.55;;;12.80;99.90;;;;;;1940509;72;21030;-81
2021/10/12 11:32:27;;;;;;;6.55;3.60;;;12.60;99.90;;;;;;1928924;72;21078;-84
2021/10/12 11:34:53;;;;;;;10.72;4.40;;;12.40;99.90;;;;;;1944739;71;21070;-84
2021/10/12 11:37:19;;;;;;;6.47;4.22;;;12.10;99.90;;;;;;1931793;71;21043;-77
2021/10/12 11:39:45;;;;;;;8.43;4.60;;;12.10;99.90;;;;;;1937970;73;21540;-82
2021/10/12 11:42:11;;;;;;;16.07;5.87;;;12.10;99.90;;;;;;1936650;72;21675;-76
2021/10/12 11:44:38;;;;;;;7.78;4.78;;;12.10;99.90;;;;;;1939224;72;21479;-73
2021/10/12 11:47:04;;;;;;;10.10;4.85;;;12.10;99.90;;;;;;1908683;72;21488;-78
2021/10/12 11:49:30;;;;;;;8.88;4.85;;;12.10;99.90;;;;;;1942540;72;21460;-78
2021/10/12 11:51:56;;;;;;;7.60;5.17;;;12.20;99.90;;;;;;1930408;72;21137;-78
2021/10/12 11:54:22;;;;;;;10.23;5.20;;;12.30;99.90;;;;;;1925013;73;21137;-79
2021/10/12 11:59:38;;;;;;;8.30;3.90;;;12.40;99.90;;;;;;1912220;73;21116;-80
2021/10/12 12:02:04;;;;;;;10.28;3.98;;;12.40;99.90;;;;;;1928111;71;21114;-82
2021/10/12 12:04:30;;;;;;;13.43;4.10;;;12.70;99.90;;;;;;1933078;72;21067;-82
2021/10/12 12:06:56;;;;;;;10.75;3.72;;;12.80;99.90;;;;;;1941239;72;21128;-80
2021/10/12 12:09:25;;;;;;;7.50;4.12;;;12.70;99.90;;;;;;1943473;72;21075;-81
2021/10/12 12:11:54;;;;;;;8.80;4.60;;;12.50;99.90;;;;;;1940401;72;21077;-81
2021/10/12 12:14:20;;;;;;;11.78;4.53;;;12.40;99.90;;;;;;1934269;72;21074;-82
2021/10/12 12:16:46;;;;;;;14.30;4.25;;;12.30;99.90;;;;;;1940287;72;21071;-81
2021/10/12 12:19:12;;;;;;;9.53;4.42;;;12.30;99.90;;;;;;1937507;72;21075;-83
2021/10/12 12:21:38;;;;;;;8.23;4.05;;;12.40;99.90;;;;;;1929819;73;21144;-84
2021/10/12 12:24:04;;;;;;;6.45;3.83;;;12.70;99.90;;;;;;1935753;72;21176;-80
2021/10/12 12:26:31;;;;;;;12.70;4.17;;;13.00;99.90;;;;;;1929574;72;21066;-83
2021/10/12 12:28:57;;;;;;;10.18;3.85;;;13.10;99.90;;;;;;1932215;72;21070;-81
2021/10/12 12:31:23;;;;;;;7.10;2.95;;;13.40;99.90;;;;;;1934748;72;21181;-81
2021/10/12 12:33:49;;;;;;;8.80;4.00;;;13.60;99.90;;;;;;1940476;72;21074;-79
2021/10/12 12:36:15;;;;;;;6.75;3.33;;;13.60;99.90;;;;;;1915978;72;21136;-84
2021/10/12 12:38:42;;;;;;;8.63;3.10;;;13.70;99.90;;;;;;1943257;72;21114;-87
2021/10/12 12:41:08;;;;;;;6.70;2.60;;;13.80;99.90;;;;;;1944198;72;21211;-88